sensor_id;sensor_type;location;lat;lon;timestamp;P1;durP1;ratioP1;P2;durP2;ratioP2
71734;SDS011;59577;52.122;5.406;2023-03-20T00:01:19;8.03;;;3.63;;
71734;SDS011;59577;52.122;5.406;2023-03-20T00:03:50;8.73;;;3.42;;
71734;SDS011;59577;52.122;5.406;2023-03-20T00:06:20;11.77;;;3.95;;
71734;SDS011;59577;52.122;5.406;2023-03-20T00:08:49;11.85;;;4.13;;
71734;SDS011;59577;52.122;5.406;2023-03-20T00:13:47;10.97;;;5.13;;
71734;SDS011;59577;52.122;5.406;2023-03-20T00:16:15;13.65;;;4.28;;
71734;SDS011;59577;52.122;5.406;2023-03-20T00:18:42;10.40;;;4.53;;
71734;SDS011;59577;52.122;5.406;2023-03-20T00:21:21;9.88;;;5.25;;
71734;SDS011;59577;52.122;5.406;2023-03-20T00:23:48;13.32;;;5.65;;
71734;SDS011;59577;52.122;5.406;2023-03-20T00:26:17;14.17;;;6.07;;
71734;SDS011;59577;52.122;5.406;2023-03-20T00:28:45;13.77;;;6.03;;
71734;SDS011;59577;52.122;5.406;2023-03-20T00:33:55;12.73;;;6.40;;
71734;SDS011;59577;52.122;5.406;2023-03-20T00:36:23;17.30;;;6.70;;
71734;SDS011;59577;52.122;5.406;2023-03-20T00:38:50;21.00;;;7.80;;
71734;SDS011;59577;52.122;5.406;2023-03-20T00:41:22;20.85;;;7.38;;
71734;SDS011;59577;52.122;5.406;2023-03-20T00:44:08;18.10;;;6.28;;
71734;SDS011;59577;52.122;5.406;2023-03-20T00:46:59;14.25;;;5.50;;
71734;SDS011;59577;52.122;5.406;2023-03-20T00:49:31;12.73;;;6.45;;
71734;SDS011;59577;52.122;5.406;2023-03-20T00:52:00;13.23;;;6.77;;
71734;SDS011;59577;52.122;5.406;2023-03-20T00:54:53;13.10;;;6.00;;
71734;SDS011;59577;52.122;5.406;2023-03-20T00:57:24;15.52;;;6.60;;
71734;SDS011;59577;52.122;5.406;2023-03-20T01:00:05;11.00;;;6.53;;
71734;SDS011;59577;52.122;5.406;2023-03-20T01:02:38;16.00;;;6.80;;
71734;SDS011;59577;52.122;5.406;2023-03-20T01:05:05;13.90;;;6.23;;
71734;SDS011;59577;52.122;5.406;2023-03-20T01:07:32;13.45;;;6.13;;
71734;SDS011;59577;52.122;5.406;2023-03-20T01:09:59;12.02;;;6.25;;
71734;SDS011;59577;52.122;5.406;2023-03-20T01:12:29;12.30;;;6.00;;
71734;SDS011;59577;52.122;5.406;2023-03-20T01:14:58;13.50;;;6.40;;
71734;SDS011;59577;52.122;5.406;2023-03-20T01:17:25;15.37;;;6.30;;
71734;SDS011;59577;52.122;5.406;2023-03-20T01:19:54;13.00;;;6.13;;
71734;SDS011;59577;52.122;5.406;2023-03-20T01:22:20;10.18;;;5.63;;
71734;SDS011;59577;52.122;5.406;2023-03-20T01:24:48;12.18;;;6.10;;
71734;SDS011;59577;52.122;5.406;2023-03-20T01:27:19;13.40;;;5.80;;
71734;SDS011;59577;52.122;5.406;2023-03-20T01:29:46;11.67;;;5.30;;
71734;SDS011;59577;52.122;5.406;2023-03-20T01:32:14;10.88;;;5.47;;
71734;SDS011;59577;52.122;5.406;2023-03-20T01:34:43;8.82;;;5.03;;
71734;SDS011;59577;52.122;5.406;2023-03-20T01:37:15;9.32;;;4.22;;
71734;SDS011;59577;52.122;5.406;2023-03-20T01:39:43;10.18;;;4.55;;
71734;SDS011;59577;52.122;5.406;2023-03-20T01:42:12;8.50;;;4.43;;
71734;SDS011;59577;52.122;5.406;2023-03-20T01:44:40;10.00;;;4.05;;
71734;SDS011;59577;52.122;5.406;2023-03-20T01:47:13;6.30;;;3.80;;
71734;SDS011;59577;52.122;5.406;2023-03-20T01:52:47;8.45;;;3.60;;
71734;SDS011;59577;52.122;5.406;2023-03-20T01:55:17;8.17;;;3.10;;
71734;SDS011;59577;52.122;5.406;2023-03-20T01:57:46;7.70;;;3.45;;
71734;SDS011;59577;52.122;5.406;2023-03-20T02:00:13;7.07;;;3.17;;
71734;SDS011;59577;52.122;5.406;2023-03-20T02:02:45;5.07;;;3.22;;
71734;SDS011;59577;52.122;5.406;2023-03-20T02:05:13;8.98;;;2.97;;
71734;SDS011;59577;52.122;5.406;2023-03-20T02:07:44;5.90;;;2.50;;
71734;SDS011;59577;52.122;5.406;2023-03-20T02:10:15;8.55;;;2.83;;
71734;SDS011;59577;52.122;5.406;2023-03-20T02:12:49;6.05;;;2.72;;
71734;SDS011;59577;52.122;5.406;2023-03-20T02:15:17;6.47;;;3.20;;
71734;SDS011;59577;52.122;5.406;2023-03-20T02:17:44;6.90;;;2.67;;
71734;SDS011;59577;52.122;5.406;2023-03-20T02:36:57;8.30;;;3.38;;
71734;SDS011;59577;52.122;5.406;2023-03-20T02:39:38;9.50;;;2.95;;
71734;SDS011;59577;52.122;5.406;2023-03-20T02:42:15;9.07;;;3.55;;
71734;SDS011;59577;52.122;5.406;2023-03-20T02:44:46;8.02;;;3.67;;
71734;SDS011;59577;52.122;5.406;2023-03-20T02:47:27;8.00;;;3.47;;
71734;SDS011;59577;52.122;5.406;2023-03-20T02:53:19;11.18;;;4.45;;
71734;SDS011;59577;52.122;5.406;2023-03-20T02:55:55;8.98;;;3.80;;
71734;SDS011;59577;52.122;5.406;2023-03-20T02:58:47;10.25;;;3.83;;
71734;SDS011;59577;52.122;5.406;2023-03-20T03:01:21;9.47;;;4.13;;
71734;SDS011;59577;52.122;5.406;2023-03-20T03:04:01;7.30;;;3.95;;
71734;SDS011;59577;52.122;5.406;2023-03-20T03:06:37;10.15;;;4.00;;
71734;SDS011;59577;52.122;5.406;2023-03-20T03:11:49;9.15;;;4.13;;
71734;SDS011;59577;52.122;5.406;2023-03-20T03:14:29;9.83;;;3.27;;
71734;SDS011;59577;52.122;5.406;2023-03-20T03:17:05;9.40;;;4.00;;
71734;SDS011;59577;52.122;5.406;2023-03-20T03:19:34;8.82;;;4.22;;
71734;SDS011;59577;52.122;5.406;2023-03-20T03:22:03;9.40;;;4.10;;
71734;SDS011;59577;52.122;5.406;2023-03-20T03:24:35;13.38;;;5.60;;
71734;SDS011;59577;52.122;5.406;2023-03-20T03:30:16;10.55;;;5.10;;
71734;SDS011;59577;52.122;5.406;2023-03-20T03:33:08;9.75;;;5.10;;
71734;SDS011;59577;52.122;5.406;2023-03-20T03:35:43;14.90;;;6.75;;
71734;SDS011;59577;52.122;5.406;2023-03-20T03:41:06;15.07;;;6.00;;
71734;SDS011;59577;52.122;5.406;2023-03-20T03:43:52;15.55;;;6.22;;
71734;SDS011;59577;52.122;5.406;2023-03-20T03:48:58;19.15;;;7.65;;
71734;SDS011;59577;52.122;5.406;2023-03-20T03:51:27;15.85;;;5.85;;
71734;SDS011;59577;52.122;5.406;2023-03-20T03:53:59;21.80;;;7.10;;
71734;SDS011;59577;52.122;5.406;2023-03-20T03:56:32;15.27;;;6.78;;
71734;SDS011;59577;52.122;5.406;2023-03-20T03:59:04;20.52;;;8.35;;
71734;SDS011;59577;52.122;5.406;2023-03-20T04:01:35;17.27;;;7.18;;
71734;SDS011;59577;52.122;5.406;2023-03-20T04:04:09;18.58;;;6.55;;
71734;SDS011;59577;52.122;5.406;2023-03-20T04:06:40;18.73;;;7.10;;
71734;SDS011;59577;52.122;5.406;2023-03-20T04:09:07;19.42;;;7.50;;
71734;SDS011;59577;52.122;5.406;2023-03-20T04:11:35;16.92;;;7.68;;
71734;SDS011;59577;52.122;5.406;2023-03-20T04:14:14;20.30;;;7.90;;
71734;SDS011;59577;52.122;5.406;2023-03-20T04:16:40;17.70;;;7.63;;
71734;SDS011;59577;52.122;5.406;2023-03-20T04:19:07;21.90;;;6.77;;
71734;SDS011;59577;52.122;5.406;2023-03-20T04:21:34;17.50;;;6.50;;
71734;SDS011;59577;52.122;5.406;2023-03-20T04:24:01;17.08;;;7.10;;
71734;SDS011;59577;52.122;5.406;2023-03-20T04:26:28;20.00;;;8.18;;
71734;SDS011;59577;52.122;5.406;2023-03-20T04:28:55;18.05;;;7.15;;
71734;SDS011;59577;52.122;5.406;2023-03-20T04:31:22;15.13;;;6.83;;
71734;SDS011;59577;52.122;5.406;2023-03-20T04:33:49;17.00;;;7.38;;
71734;SDS011;59577;52.122;5.406;2023-03-20T04:36:15;14.15;;;8.13;;
71734;SDS011;59577;52.122;5.406;2023-03-20T04:38:49;16.55;;;7.60;;
71734;SDS011;59577;52.122;5.406;2023-03-20T04:41:16;19.23;;;7.53;;
71734;SDS011;59577;52.122;5.406;2023-03-20T04:43:46;18.47;;;8.03;;
71734;SDS011;59577;52.122;5.406;2023-03-20T04:46:13;16.75;;;7.60;;
71734;SDS011;59577;52.122;5.406;2023-03-20T04:48:39;17.95;;;7.88;;
71734;SDS011;59577;52.122;5.406;2023-03-20T04:51:06;17.35;;;7.18;;
71734;SDS011;59577;52.122;5.406;2023-03-20T04:53:35;13.73;;;7.32;;
71734;SDS011;59577;52.122;5.406;2023-03-20T04:56:08;17.97;;;7.40;;
71734;SDS011;59577;52.122;5.406;2023-03-20T04:58:37;16.30;;;7.70;;
71734;SDS011;59577;52.122;5.406;2023-03-20T05:01:03;19.13;;;8.32;;
71734;SDS011;59577;52.122;5.406;2023-03-20T05:03:30;17.27;;;8.18;;
71734;SDS011;59577;52.122;5.406;2023-03-20T05:05:57;17.02;;;8.07;;
71734;SDS011;59577;52.122;5.406;2023-03-20T05:08:23;18.30;;;7.93;;
71734;SDS011;59577;52.122;5.406;2023-03-20T05:11:00;15.55;;;8.77;;
71734;SDS011;59577;52.122;5.406;2023-03-20T05:13:27;15.73;;;7.72;;
71734;SDS011;59577;52.122;5.406;2023-03-20T05:15:54;17.95;;;9.23;;
71734;SDS011;59577;52.122;5.406;2023-03-20T05:18:23;16.42;;;8.23;;
71734;SDS011;59577;52.122;5.406;2023-03-20T05:20:50;21.93;;;7.57;;
71734;SDS011;59577;52.122;5.406;2023-03-20T05:23:17;20.67;;;8.68;;
71734;SDS011;59577;52.122;5.406;2023-03-20T05:25:52;21.63;;;8.55;;
71734;SDS011;59577;52.122;5.406;2023-03-20T05:28:25;18.92;;;8.32;;
71734;SDS011;59577;52.122;5.406;2023-03-20T05:30:52;15.13;;;7.57;;
71734;SDS011;59577;52.122;5.406;2023-03-20T05:33:23;16.70;;;9.17;;
71734;SDS011;59577;52.122;5.406;2023-03-20T05:35:50;22.17;;;8.77;;
71734;SDS011;59577;52.122;5.406;2023-03-20T05:38:16;25.52;;;9.93;;
71734;SDS011;59577;52.122;5.406;2023-03-20T05:40:48;21.77;;;8.45;;
71734;SDS011;59577;52.122;5.406;2023-03-20T05:43:26;16.55;;;8.95;;
71734;SDS011;59577;52.122;5.406;2023-03-20T05:46:09;15.17;;;7.97;;
71734;SDS011;59577;52.122;5.406;2023-03-20T05:48:36;13.45;;;7.70;;
71734;SDS011;59577;52.122;5.406;2023-03-20T05:51:04;17.30;;;8.40;;
71734;SDS011;59577;52.122;5.406;2023-03-20T05:56:23;17.40;;;8.65;;
71734;SDS011;59577;52.122;5.406;2023-03-20T05:58:50;14.87;;;7.90;;
71734;SDS011;59577;52.122;5.406;2023-03-20T06:01:23;15.82;;;7.53;;
71734;SDS011;59577;52.122;5.406;2023-03-20T06:03:53;15.85;;;7.65;;
71734;SDS011;59577;52.122;5.406;2023-03-20T06:06:19;14.95;;;7.68;;
71734;SDS011;59577;52.122;5.406;2023-03-20T06:08:46;17.02;;;7.43;;
71734;SDS011;59577;52.122;5.406;2023-03-20T06:11:13;18.60;;;7.83;;
71734;SDS011;59577;52.122;5.406;2023-03-20T06:13:39;14.00;;;7.97;;
71734;SDS011;59577;52.122;5.406;2023-03-20T06:16:06;15.52;;;7.70;;
71734;SDS011;59577;52.122;5.406;2023-03-20T06:18:33;12.88;;;6.97;;
71734;SDS011;59577;52.122;5.406;2023-03-20T06:21:00;14.57;;;7.43;;
71734;SDS011;59577;52.122;5.406;2023-03-20T06:23:27;17.67;;;6.87;;
71734;SDS011;59577;52.122;5.406;2023-03-20T06:25:54;15.75;;;7.45;;
71734;SDS011;59577;52.122;5.406;2023-03-20T06:28:29;14.63;;;7.30;;
71734;SDS011;59577;52.122;5.406;2023-03-20T06:30:57;14.13;;;7.30;;
71734;SDS011;59577;52.122;5.406;2023-03-20T06:33:24;14.55;;;6.65;;
71734;SDS011;59577;52.122;5.406;2023-03-20T06:35:57;15.03;;;7.37;;
71734;SDS011;59577;52.122;5.406;2023-03-20T06:38:23;19.50;;;7.28;;
71734;SDS011;59577;52.122;5.406;2023-03-20T06:40:50;19.98;;;8.45;;
71734;SDS011;59577;52.122;5.406;2023-03-20T06:43:24;13.55;;;7.13;;
71734;SDS011;59577;52.122;5.406;2023-03-20T06:45:53;18.75;;;7.43;;
71734;SDS011;59577;52.122;5.406;2023-03-20T06:48:20;17.77;;;7.37;;
71734;SDS011;59577;52.122;5.406;2023-03-20T06:50:48;13.82;;;6.80;;
71734;SDS011;59577;52.122;5.406;2023-03-20T06:53:16;14.15;;;7.00;;
71734;SDS011;59577;52.122;5.406;2023-03-20T06:55:46;13.55;;;6.63;;
71734;SDS011;59577;52.122;5.406;2023-03-20T06:58:17;14.95;;;7.07;;
71734;SDS011;59577;52.122;5.406;2023-03-20T07:00:44;15.93;;;7.10;;
71734;SDS011;59577;52.122;5.406;2023-03-20T07:03:11;19.85;;;7.40;;
71734;SDS011;59577;52.122;5.406;2023-03-20T07:05:38;11.55;;;6.85;;
71734;SDS011;59577;52.122;5.406;2023-03-20T07:08:05;10.95;;;6.47;;
71734;SDS011;59577;52.122;5.406;2023-03-20T07:10:33;16.33;;;6.88;;
71734;SDS011;59577;52.122;5.406;2023-03-20T07:13:07;14.23;;;6.40;;
71734;SDS011;59577;52.122;5.406;2023-03-20T07:15:35;15.75;;;7.32;;
71734;SDS011;59577;52.122;5.406;2023-03-20T07:18:02;14.70;;;6.78;;
71734;SDS011;59577;52.122;5.406;2023-03-20T07:20:29;16.42;;;6.93;;
71734;SDS011;59577;52.122;5.406;2023-03-20T07:22:56;14.15;;;7.28;;
71734;SDS011;59577;52.122;5.406;2023-03-20T07:25:22;18.13;;;7.43;;
71734;SDS011;59577;52.122;5.406;2023-03-20T07:28:08;13.27;;;6.70;;
71734;SDS011;59577;52.122;5.406;2023-03-20T07:30:35;12.73;;;6.72;;
71734;SDS011;59577;52.122;5.406;2023-03-20T07:33:01;11.13;;;6.90;;
71734;SDS011;59577;52.122;5.406;2023-03-20T07:35:37;19.30;;;8.02;;
71734;SDS011;59577;52.122;5.406;2023-03-20T07:38:15;14.47;;;6.43;;
71734;SDS011;59577;52.122;5.406;2023-03-20T07:40:42;14.50;;;6.32;;
71734;SDS011;59577;52.122;5.406;2023-03-20T07:43:08;11.32;;;6.20;;
71734;SDS011;59577;52.122;5.406;2023-03-20T07:45:43;11.00;;;6.18;;
71734;SDS011;59577;52.122;5.406;2023-03-20T07:48:11;17.48;;;5.93;;
71734;SDS011;59577;52.122;5.406;2023-03-20T07:50:45;13.13;;;6.20;;
71734;SDS011;59577;52.122;5.406;2023-03-20T07:53:13;10.52;;;5.85;;
71734;SDS011;59577;52.122;5.406;2023-03-20T07:55:44;14.00;;;5.82;;
71734;SDS011;59577;52.122;5.406;2023-03-20T07:58:11;12.00;;;6.10;;
71734;SDS011;59577;52.122;5.406;2023-03-20T08:00:38;19.08;;;6.38;;
71734;SDS011;59577;52.122;5.406;2023-03-20T08:03:04;13.40;;;4.97;;
71734;SDS011;59577;52.122;5.406;2023-03-20T08:05:31;13.25;;;5.32;;
71734;SDS011;59577;52.122;5.406;2023-03-20T08:08:05;15.95;;;5.20;;
71734;SDS011;59577;52.122;5.406;2023-03-20T08:10:33;14.85;;;5.38;;
71734;SDS011;59577;52.122;5.406;2023-03-20T08:13:02;14.30;;;5.90;;
71734;SDS011;59577;52.122;5.406;2023-03-20T08:15:30;13.67;;;4.97;;
71734;SDS011;59577;52.122;5.406;2023-03-20T08:17:56;13.15;;;5.18;;
71734;SDS011;59577;52.122;5.406;2023-03-20T08:20:29;31.02;;;5.90;;
71734;SDS011;59577;52.122;5.406;2023-03-20T08:22:59;10.68;;;4.97;;
71734;SDS011;59577;52.122;5.406;2023-03-20T08:25:25;12.10;;;4.47;;
71734;SDS011;59577;52.122;5.406;2023-03-20T08:27:52;11.60;;;4.47;;
71734;SDS011;59577;52.122;5.406;2023-03-20T08:30:20;10.88;;;4.30;;
71734;SDS011;59577;52.122;5.406;2023-03-20T08:32:49;11.73;;;4.53;;
71734;SDS011;59577;52.122;5.406;2023-03-20T08:35:17;11.48;;;4.80;;
71734;SDS011;59577;52.122;5.406;2023-03-20T08:37:58;12.00;;;4.43;;
71734;SDS011;59577;52.122;5.406;2023-03-20T08:40:26;9.13;;;5.00;;
71734;SDS011;59577;52.122;5.406;2023-03-20T11:45:12;13.60;;;5.07;;
71734;SDS011;59577;52.122;5.406;2023-03-20T11:47:42;10.30;;;5.30;;
71734;SDS011;59577;52.122;5.406;2023-03-20T11:50:31;16.73;;;6.03;;
71734;SDS011;59577;52.122;5.406;2023-03-20T11:53:22;14.00;;;6.05;;
71734;SDS011;59577;52.122;5.406;2023-03-20T11:56:11;10.43;;;5.35;;
71734;SDS011;59577;52.122;5.406;2023-03-20T12:01:17;12.90;;;5.07;;
71734;SDS011;59577;52.122;5.406;2023-03-20T12:03:52;11.10;;;5.77;;
71734;SDS011;59577;52.122;5.406;2023-03-20T12:06:41;12.07;;;6.10;;
71734;SDS011;59577;52.122;5.406;2023-03-20T12:09:22;14.75;;;6.32;;
71734;SDS011;59577;52.122;5.406;2023-03-20T12:11:55;13.43;;;5.97;;
71734;SDS011;59577;52.122;5.406;2023-03-20T12:14:49;13.85;;;6.85;;
71734;SDS011;59577;52.122;5.406;2023-03-20T12:17:26;12.30;;;6.27;;
71734;SDS011;59577;52.122;5.406;2023-03-20T12:53:39;15.85;;;7.63;;
71734;SDS011;59577;52.122;5.406;2023-03-20T13:39:45;15.85;;;7.82;;
71734;SDS011;59577;52.122;5.406;2023-03-20T13:42:20;11.50;;;7.23;;
71734;SDS011;59577;52.122;5.406;2023-03-20T13:45:25;14.48;;;8.07;;
71734;SDS011;59577;52.122;5.406;2023-03-20T13:50:58;13.82;;;7.85;;
71734;SDS011;59577;52.122;5.406;2023-03-20T14:05:36;12.75;;;7.35;;
71734;SDS011;59577;52.122;5.406;2023-03-20T14:11:30;17.73;;;8.50;;
71734;SDS011;59577;52.122;5.406;2023-03-20T17:08:41;23.15;;;9.90;;
71734;SDS011;59577;52.122;5.406;2023-03-20T17:20:25;18.48;;;9.27;;
71734;SDS011;59577;52.122;5.406;2023-03-20T17:22:54;22.23;;;9.57;;
71734;SDS011;59577;52.122;5.406;2023-03-20T17:25:21;27.63;;;10.83;;
71734;SDS011;59577;52.122;5.406;2023-03-20T17:30:30;21.35;;;9.18;;
71734;SDS011;59577;52.122;5.406;2023-03-20T17:33:00;26.02;;;10.43;;
71734;SDS011;59577;52.122;5.406;2023-03-20T17:35:31;20.33;;;10.55;;
71734;SDS011;59577;52.122;5.406;2023-03-20T17:37:58;17.80;;;10.10;;
71734;SDS011;59577;52.122;5.406;2023-03-20T17:40:25;22.42;;;10.15;;
71734;SDS011;59577;52.122;5.406;2023-03-20T17:42:52;26.90;;;11.00;;
71734;SDS011;59577;52.122;5.406;2023-03-20T17:51:31;21.20;;;10.53;;
71734;SDS011;59577;52.122;5.406;2023-03-20T17:54:00;21.05;;;9.65;;
71734;SDS011;59577;52.122;5.406;2023-03-20T17:56:27;21.83;;;11.02;;
71734;SDS011;59577;52.122;5.406;2023-03-20T18:02:00;21.17;;;11.38;;
71734;SDS011;59577;52.122;5.406;2023-03-20T19:01:08;17.13;;;9.27;;
71734;SDS011;59577;52.122;5.406;2023-03-20T19:09:49;14.77;;;9.60;;
71734;SDS011;59577;52.122;5.406;2023-03-20T19:12:16;15.95;;;8.93;;
71734;SDS011;59577;52.122;5.406;2023-03-20T19:14:42;14.30;;;9.35;;
71734;SDS011;59577;52.122;5.406;2023-03-20T19:17:32;19.23;;;10.40;;
71734;SDS011;59577;52.122;5.406;2023-03-20T19:19:58;17.30;;;8.80;;
71734;SDS011;59577;52.122;5.406;2023-03-20T19:38:28;11.57;;;9.10;;
71734;SDS011;59577;52.122;5.406;2023-03-20T19:41:00;16.05;;;9.48;;
71734;SDS011;59577;52.122;5.406;2023-03-20T19:52:30;14.65;;;9.10;;
71734;SDS011;59577;52.122;5.406;2023-03-20T20:10:55;15.35;;;8.88;;
71734;SDS011;59577;52.122;5.406;2023-03-20T20:32:28;8.95;;;7.88;;
71734;SDS011;59577;52.122;5.406;2023-03-20T20:45:39;9.98;;;7.50;;
71734;SDS011;59577;52.122;5.406;2023-03-20T20:48:06;14.95;;;7.45;;
71734;SDS011;59577;52.122;5.406;2023-03-20T20:53:42;12.57;;;7.97;;
71734;SDS011;59577;52.122;5.406;2023-03-20T20:56:09;11.45;;;7.28;;
71734;SDS011;59577;52.122;5.406;2023-03-20T20:58:36;9.35;;;7.13;;
71734;SDS011;59577;52.122;5.406;2023-03-20T21:01:02;8.57;;;7.68;;
71734;SDS011;59577;52.122;5.406;2023-03-20T21:03:29;12.73;;;7.38;;
71734;SDS011;59577;52.122;5.406;2023-03-20T21:06:01;7.90;;;5.77;;
71734;SDS011;59577;52.122;5.406;2023-03-20T21:08:29;9.13;;;6.28;;
71734;SDS011;59577;52.122;5.406;2023-03-20T21:10:56;9.68;;;7.90;;
71734;SDS011;59577;52.122;5.406;2023-03-20T21:13:22;11.57;;;7.82;;
71734;SDS011;59577;52.122;5.406;2023-03-20T21:15:58;10.30;;;7.95;;
71734;SDS011;59577;52.122;5.406;2023-03-20T21:18:25;10.73;;;7.47;;
71734;SDS011;59577;52.122;5.406;2023-03-20T21:20:51;10.55;;;6.97;;
71734;SDS011;59577;52.122;5.406;2023-03-20T21:23:18;9.02;;;6.50;;
71734;SDS011;59577;52.122;5.406;2023-03-20T21:25:45;8.18;;;7.35;;
71734;SDS011;59577;52.122;5.406;2023-03-20T21:28:13;9.82;;;7.00;;
71734;SDS011;59577;52.122;5.406;2023-03-20T21:30:40;10.90;;;6.70;;
71734;SDS011;59577;52.122;5.406;2023-03-20T21:33:21;11.30;;;6.10;;
